createdAt,value
2017-09-08T00:00:19.496Z,7.10
2017-09-08T00:01:26.082Z,6.40
2017-09-08T00:02:33.086Z,7.70
2017-09-08T00:03:40.062Z,6.50
2017-09-08T00:04:46.167Z,7.47
2017-09-08T00:05:52.927Z,6.30
2017-09-08T00:06:59.989Z,6.65
2017-09-08T00:08:06.161Z,6.30
2017-09-08T00:09:12.210Z,7.28
2017-09-08T00:10:19.026Z,7.15
2017-09-08T00:11:25.922Z,7.60
2017-09-08T00:12:32.120Z,6.95
2017-09-08T00:13:38.562Z,7.35
2017-09-08T00:14:44.669Z,7.25
2017-09-08T00:15:51.105Z,7.55
2017-09-08T00:16:58.521Z,7.68
2017-09-08T00:18:04.327Z,7.65
2017-09-08T00:19:10.423Z,8.05
2017-09-08T00:20:16.575Z,7.30
2017-09-08T00:21:22.487Z,6.70
2017-09-08T00:22:28.614Z,6.62
2017-09-08T00:23:34.851Z,7.62
2017-09-08T00:24:40.931Z,7.18
2017-09-08T00:25:47.303Z,7.10
2017-09-08T00:26:53.474Z,6.85
2017-09-08T00:28:00.434Z,7.00
2017-09-08T00:29:06.618Z,6.40
2017-09-08T00:30:12.801Z,7.12
2017-09-08T00:31:19.512Z,7.20
2017-09-08T00:32:25.389Z,7.10
2017-09-08T00:33:32.298Z,6.55
2017-09-08T00:34:38.479Z,6.87
2017-09-08T00:35:44.742Z,7.18
2017-09-08T00:36:50.946Z,7.15
2017-09-08T00:37:57.212Z,6.30
2017-09-08T00:39:03.290Z,6.95
2017-09-08T00:40:09.942Z,6.10
2017-09-08T00:41:16.713Z,6.45
2017-09-08T00:42:23.410Z,6.00
2017-09-08T00:43:29.739Z,6.45
2017-09-08T00:44:35.548Z,6.60
2017-09-08T00:45:41.617Z,5.85
2017-09-08T00:46:47.814Z,6.07
2017-09-08T00:47:54.043Z,7.15
2017-09-08T00:48:59.952Z,6.55
2017-09-08T00:50:05.835Z,6.93
2017-09-08T00:51:11.087Z,6.55
2017-09-08T00:52:17.243Z,5.72
2017-09-08T00:53:23.053Z,6.22
2017-09-08T00:54:29.566Z,6.05
2017-09-08T00:55:35.338Z,5.93
2017-09-08T00:56:41.293Z,6.53
2017-09-08T00:57:47.120Z,7.40
2017-09-08T00:58:52.669Z,5.57
2017-09-08T00:59:58.819Z,6.78
2017-09-08T01:01:04.908Z,6.30
2017-09-08T01:02:11.196Z,6.00
2017-09-08T01:03:18.161Z,5.20
2017-09-08T01:04:24.375Z,5.80
2017-09-08T01:05:30.465Z,5.05
2017-09-08T01:06:36.284Z,5.55
2017-09-08T01:07:42.376Z,6.22
2017-09-08T01:08:49.834Z,7.05
2017-09-08T01:09:56.033Z,5.68
2017-09-08T01:11:01.892Z,5.35
2017-09-08T01:12:07.989Z,5.22
2017-09-08T01:13:13.358Z,5.60
2017-09-08T01:14:19.200Z,5.45
2017-09-08T01:15:24.475Z,5.55
2017-09-08T01:16:30.193Z,6.18
2017-09-08T01:17:36.953Z,5.25
2017-09-08T01:18:43.013Z,4.20
2017-09-08T01:19:49.255Z,4.97
2017-09-08T01:20:55.416Z,5.15
2017-09-08T01:22:01.728Z,6.20
2017-09-08T01:23:08.223Z,5.55
2017-09-08T01:24:14.373Z,5.22
2017-09-08T01:25:20.606Z,5.35
2017-09-08T01:26:26.800Z,4.80
2017-09-08T01:27:32.890Z,5.32
2017-09-08T01:28:39.289Z,4.82
2017-09-08T01:29:45.356Z,4.95
2017-09-08T01:30:51.090Z,5.85
2017-09-08T01:31:57.301Z,4.75
2017-09-08T01:33:03.554Z,5.28
2017-09-08T01:34:09.730Z,5.93
2017-09-08T01:35:15.672Z,5.07
2017-09-08T01:36:21.806Z,4.80
2017-09-08T01:37:28.892Z,5.10
2017-09-08T01:38:34.947Z,5.90
2017-09-08T01:39:41.135Z,4.37
2017-09-08T01:40:47.318Z,4.78
2017-09-08T01:41:53.604Z,5.57
2017-09-08T01:42:59.964Z,5.43
2017-09-08T01:44:06.206Z,4.85
2017-09-08T01:45:12.337Z,4.82
2017-09-08T01:46:19.103Z,5.20
2017-09-08T01:47:25.163Z,4.95
2017-09-08T01:48:31.357Z,5.18
2017-09-08T01:49:38.420Z,4.78
2017-09-08T01:50:44.715Z,5.68
2017-09-08T01:51:50.833Z,5.68
2017-09-08T01:52:56.805Z,4.85
2017-09-08T01:54:02.904Z,6.70
2017-09-08T01:55:09.121Z,4.90
2017-09-08T01:56:15.347Z,4.60
2017-09-08T01:57:22.146Z,5.35
2017-09-08T01:58:28.108Z,5.68
2017-09-08T01:59:35.126Z,5.22
2017-09-08T02:00:41.001Z,5.20
2017-09-08T02:01:46.997Z,5.03
2017-09-08T02:02:54.225Z,5.18
2017-09-08T02:04:00.372Z,5.50
2017-09-08T02:05:06.514Z,4.82
2017-09-08T02:06:14.973Z,4.93
2017-09-08T02:07:21.879Z,6.07
2017-09-08T02:08:28.374Z,4.95
2017-09-08T02:09:34.558Z,4.85
2017-09-08T02:10:40.639Z,5.57
2017-09-08T02:11:47.409Z,4.93
2017-09-08T02:12:53.534Z,5.30
2017-09-08T02:13:59.385Z,5.10
2017-09-08T02:15:05.545Z,5.35
2017-09-08T02:16:11.728Z,5.62
2017-09-08T02:17:17.913Z,5.03
2017-09-08T02:18:24.022Z,6.47
2017-09-08T02:19:30.156Z,4.43
2017-09-08T02:20:36.223Z,5.62
2017-09-08T02:21:47.677Z,4.60
2017-09-08T02:22:53.826Z,6.15
2017-09-08T02:24:00.532Z,5.05
2017-09-08T02:25:06.373Z,5.65
2017-09-08T02:26:12.198Z,5.43
2017-09-08T02:27:18.074Z,5.15
2017-09-08T02:28:24.281Z,4.78
2017-09-08T02:29:30.391Z,4.72
2017-09-08T02:30:36.511Z,4.95
2017-09-08T02:31:43.339Z,5.80
2017-09-08T02:32:49.705Z,4.78
2017-09-08T02:33:56.772Z,5.55
2017-09-08T02:35:02.793Z,5.57
2017-09-08T02:36:09.000Z,5.15
2017-09-08T02:37:15.286Z,5.97
2017-09-08T02:38:21.506Z,6.00
2017-09-08T02:39:28.452Z,4.80
2017-09-08T02:40:35.547Z,5.93
2017-09-08T02:41:42.585Z,5.05
2017-09-08T02:42:48.743Z,5.70
2017-09-08T02:43:54.957Z,6.12
2017-09-08T02:45:01.272Z,5.45
2017-09-08T02:46:07.681Z,5.50
2017-09-08T02:47:13.814Z,4.55
2017-09-08T02:48:19.987Z,5.60
2017-09-08T02:49:25.857Z,4.50
2017-09-08T02:50:32.852Z,5.78
2017-09-08T02:51:39.024Z,4.60
2017-09-08T02:52:45.279Z,6.22
2017-09-08T02:53:51.437Z,5.12
2017-09-08T02:54:57.661Z,5.15
2017-09-08T02:56:03.633Z,4.87
2017-09-08T02:57:09.619Z,5.87
2017-09-08T02:58:15.811Z,4.90
2017-09-08T02:59:21.935Z,5.47
2017-09-08T03:00:28.178Z,5.22
2017-09-08T03:01:34.136Z,5.28
2017-09-08T03:02:40.279Z,5.20
2017-09-08T03:03:46.545Z,5.12
2017-09-08T03:04:52.697Z,4.70
2017-09-08T03:05:58.881Z,5.40
2017-09-08T03:07:04.801Z,5.20
2017-09-08T03:08:10.979Z,4.90
2017-09-08T03:09:17.132Z,5.53
2017-09-08T03:10:23.315Z,5.25
2017-09-08T03:11:29.518Z,4.80
2017-09-08T03:12:35.667Z,5.10
2017-09-08T03:13:41.790Z,5.00
2017-09-08T03:14:47.955Z,4.82
2017-09-08T03:15:54.159Z,6.00
2017-09-08T03:17:00.361Z,5.18
2017-09-08T03:18:06.479Z,4.97
2017-09-08T03:19:12.602Z,5.12
2017-09-08T03:20:18.738Z,5.22
2017-09-08T03:21:24.868Z,5.03
2017-09-08T03:22:31.041Z,5.40
2017-09-08T03:23:37.032Z,5.65
2017-09-08T03:24:43.326Z,5.72
2017-09-08T03:25:49.516Z,5.90
2017-09-08T03:26:55.698Z,5.75
2017-09-08T03:28:01.845Z,6.50
2017-09-08T03:29:07.760Z,5.80
2017-09-08T03:30:14.096Z,5.70
2017-09-08T03:31:20.256Z,6.22
2017-09-08T03:32:26.454Z,5.45
2017-09-08T03:33:32.533Z,5.80
2017-09-08T03:34:38.416Z,6.07
2017-09-08T03:35:44.532Z,6.05
2017-09-08T03:36:50.745Z,6.37
2017-09-08T03:37:56.953Z,5.87
2017-09-08T03:39:02.951Z,6.53
2017-09-08T03:40:09.144Z,6.28
2017-09-08T03:41:15.373Z,6.03
2017-09-08T03:42:21.527Z,6.50
2017-09-08T03:43:27.637Z,5.60
2017-09-08T03:44:33.777Z,7.32
2017-09-08T03:45:39.901Z,6.53
2017-09-08T03:46:46.011Z,6.97
2017-09-08T03:47:52.140Z,6.20
2017-09-08T03:48:58.276Z,6.53
2017-09-08T03:50:04.484Z,6.82
2017-09-08T03:51:11.026Z,6.60
2017-09-08T03:52:17.849Z,6.35
2017-09-08T03:56:48.395Z,7.22
2017-09-08T03:58:01.891Z,6.45
2017-09-08T03:59:18.506Z,5.80
2017-09-08T04:00:33.081Z,7.22
2017-09-08T04:01:39.260Z,5.75
2017-09-08T04:02:46.083Z,6.60
2017-09-08T04:03:53.103Z,6.97
2017-09-08T04:04:59.436Z,6.80
2017-09-08T04:06:07.328Z,6.35
2017-09-08T04:07:15.831Z,6.25
2017-09-08T04:08:23.109Z,6.25
2017-09-08T04:09:31.371Z,6.43
2017-09-08T04:10:40.395Z,5.18
2017-09-08T04:11:53.544Z,5.82
2017-09-08T04:13:05.308Z,6.68
2017-09-08T04:14:19.602Z,5.10
2017-09-08T04:15:36.866Z,6.10
2017-09-08T04:17:04.605Z,5.62
2017-09-08T04:18:32.818Z,5.72
2017-09-08T04:19:47.493Z,5.65
2017-09-08T04:21:09.069Z,6.93
2017-09-08T04:22:23.495Z,5.35
2017-09-08T04:23:33.386Z,6.55
2017-09-08T04:26:41.404Z,6.20
2017-09-08T04:27:50.459Z,5.53
2017-09-08T04:29:18.849Z,6.00
2017-09-08T04:34:10.280Z,5.97
2017-09-08T04:35:20.738Z,6.00
2017-09-08T04:36:34.493Z,5.68
2017-09-08T04:37:44.578Z,5.72
2017-09-08T04:40:59.536Z,7.07
2017-09-08T04:42:24.402Z,5.87
2017-09-08T04:43:42.298Z,5.20
2017-09-08T04:45:20.275Z,6.07
2017-09-08T04:46:34.320Z,5.95
2017-09-08T04:49:38.422Z,5.57
2017-09-08T04:51:02.478Z,6.45
2017-09-08T04:52:12.728Z,5.62
2017-09-08T04:53:24.575Z,7.45
2017-09-08T04:54:57.484Z,6.30
2017-09-08T04:56:38.500Z,6.90
2017-09-08T04:59:26.311Z,5.60
2017-09-08T05:02:50.462Z,6.25
2017-09-08T05:04:02.626Z,5.78
2017-09-08T05:05:32.810Z,6.05
2017-09-08T05:06:50.134Z,4.95
2017-09-08T05:08:05.507Z,5.70
2017-09-08T05:09:21.801Z,6.10
2017-09-08T05:10:35.632Z,5.97
2017-09-08T05:11:50.421Z,5.57
2017-09-08T05:13:00.412Z,5.70
2017-09-08T05:14:11.634Z,6.32
2017-09-08T05:15:22.624Z,5.50
2017-09-08T05:17:00.458Z,5.50
2017-09-08T05:18:12.635Z,5.93
2017-09-08T05:19:22.069Z,5.80
2017-09-08T05:20:32.636Z,5.45
2017-09-08T05:21:44.613Z,5.65
2017-09-08T05:22:54.380Z,5.68
2017-09-08T05:24:31.450Z,5.65
2017-09-08T05:25:43.979Z,5.68
2017-09-08T05:27:17.434Z,6.62
2017-09-08T05:28:30.514Z,5.82
2017-09-08T05:30:05.259Z,5.85
2017-09-08T05:35:02.208Z,5.25
2017-09-08T05:36:25.644Z,5.15
2017-09-08T05:37:46.534Z,5.60
2017-09-08T05:39:02.562Z,6.70
2017-09-08T05:40:13.659Z,6.18
2017-09-08T05:41:29.408Z,6.15
2017-09-08T05:42:38.110Z,5.72
2017-09-08T05:45:23.470Z,8.00
2017-09-08T05:47:10.661Z,5.10
2017-09-08T05:48:41.371Z,6.03
2017-09-08T05:53:56.708Z,6.30
2017-09-08T05:55:19.977Z,6.85
2017-09-08T05:56:28.282Z,6.40
2017-09-08T05:59:52.029Z,5.37
2017-09-08T06:02:32.177Z,5.65
2017-09-08T06:05:40.323Z,5.53
2017-09-08T06:07:13.086Z,6.30
2017-09-08T06:08:29.599Z,6.03
2017-09-08T06:09:39.621Z,5.70
2017-09-08T06:10:48.244Z,5.55
2017-09-08T06:12:08.547Z,5.78
2017-09-08T06:13:26.590Z,5.25
2017-09-08T06:14:54.331Z,5.93
2017-09-08T06:16:06.228Z,5.97
2017-09-08T06:17:18.458Z,5.55
2017-09-08T06:18:30.337Z,6.78
2017-09-08T06:19:41.563Z,5.32
2017-09-08T06:20:53.503Z,5.80
2017-09-08T06:22:04.301Z,5.82
2017-09-08T06:23:13.326Z,5.53
2017-09-08T06:26:38.278Z,5.25
2017-09-08T06:27:49.561Z,5.60
2017-09-08T06:29:01.203Z,5.35
2017-09-08T06:30:11.286Z,6.30
2017-09-08T06:31:21.252Z,5.82
2017-09-08T06:32:32.582Z,5.90
2017-09-08T06:33:43.457Z,6.00
2017-09-08T06:34:55.488Z,5.65
2017-09-08T06:36:06.410Z,5.70
2017-09-08T06:37:18.270Z,5.85
2017-09-08T06:38:29.120Z,6.40
2017-09-08T06:39:40.334Z,6.07
2017-09-08T06:40:50.479Z,6.03
2017-09-08T06:42:02.347Z,5.85
2017-09-08T06:43:13.085Z,6.07
2017-09-08T06:44:28.985Z,6.28
2017-09-08T06:45:44.248Z,5.75
2017-09-08T06:46:54.328Z,6.43
2017-09-08T06:48:04.170Z,5.57
2017-09-08T06:49:14.203Z,7.97
2017-09-08T06:50:22.758Z,6.37
2017-09-08T06:51:31.330Z,7.07
2017-09-08T06:52:42.339Z,6.28
2017-09-08T06:53:52.223Z,6.20
2017-09-08T06:55:03.246Z,7.03
2017-09-08T06:56:13.160Z,7.22
2017-09-08T06:57:26.255Z,7.93
2017-09-08T06:58:36.189Z,6.32
2017-09-08T07:01:02.146Z,6.22
2017-09-08T07:02:12.169Z,6.80
2017-09-08T07:03:21.201Z,6.43
2017-09-08T07:04:31.125Z,6.55
2017-09-08T07:06:55.117Z,6.30
2017-09-08T07:08:06.296Z,6.65
2017-09-08T07:09:17.389Z,6.53
2017-09-08T07:10:27.133Z,6.62
2017-09-08T07:11:38.680Z,6.03
2017-09-08T07:14:04.291Z,6.47
2017-09-08T07:15:17.164Z,6.57
2017-09-08T07:16:29.278Z,6.80
2017-09-08T07:17:40.199Z,6.43
2017-09-08T07:18:51.212Z,6.28
2017-09-08T07:20:04.389Z,6.30
2017-09-08T07:21:35.242Z,7.18
2017-09-08T07:22:46.191Z,6.62
2017-09-08T07:24:00.243Z,7.78
2017-09-08T07:25:11.177Z,6.35
2017-09-08T07:26:30.120Z,6.87
2017-09-08T07:27:42.245Z,6.87
2017-09-08T07:28:58.278Z,6.62
2017-09-08T07:30:20.247Z,6.30
2017-09-08T07:31:30.274Z,6.10
2017-09-08T07:32:40.437Z,6.50
2017-09-08T07:33:51.292Z,6.70
2017-09-08T07:35:01.210Z,6.70
2017-09-08T07:36:13.195Z,5.75
2017-09-08T07:37:24.081Z,6.40
2017-09-08T07:38:35.151Z,5.80
2017-09-08T07:39:45.075Z,6.45
2017-09-08T07:40:56.144Z,7.22
2017-09-08T07:42:06.975Z,6.45
2017-09-08T07:43:16.014Z,5.40
2017-09-08T07:44:26.242Z,5.87
2017-09-08T07:45:38.182Z,5.45
2017-09-08T07:46:55.954Z,5.93
2017-09-08T07:48:12.281Z,7.30
2017-09-08T07:49:25.370Z,6.72
2017-09-08T07:50:37.160Z,4.82
2017-09-08T07:51:52.147Z,6.28
2017-09-08T07:53:02.017Z,5.90
2017-09-08T07:54:11.233Z,5.60
2017-09-08T07:55:21.284Z,6.47
2017-09-08T07:56:32.000Z,7.00
2017-09-08T07:57:41.998Z,5.85
2017-09-08T07:58:55.012Z,6.20
2017-09-08T08:00:06.033Z,6.70
2017-09-08T08:01:17.017Z,5.53
2017-09-08T08:02:29.170Z,5.22
2017-09-08T08:03:41.183Z,5.53
2017-09-08T08:04:51.731Z,5.43
2017-09-08T08:06:02.075Z,5.40
2017-09-08T08:07:12.959Z,5.75
2017-09-08T08:08:23.072Z,6.15
2017-09-08T08:09:37.271Z,5.87
2017-09-08T08:10:47.957Z,5.75
2017-09-08T08:11:59.065Z,6.12
2017-09-08T08:13:09.125Z,6.30
2017-09-08T08:14:19.925Z,5.43
2017-09-08T08:15:31.123Z,6.57
2017-09-08T08:16:43.137Z,6.30
2017-09-08T08:17:54.225Z,5.37
2017-09-08T08:19:04.909Z,5.12
2017-09-08T08:20:15.589Z,6.10
2017-09-08T08:21:26.207Z,5.82
2017-09-08T08:22:37.087Z,5.90
2017-09-08T08:23:48.111Z,6.70
2017-09-08T08:24:59.250Z,5.35
2017-09-08T08:26:10.239Z,5.35
2017-09-08T08:27:21.981Z,6.12
2017-09-08T08:28:37.190Z,5.70
2017-09-08T08:29:52.152Z,5.65
2017-09-08T08:31:02.001Z,5.55
2017-09-08T08:32:11.993Z,5.05
2017-09-08T08:33:22.953Z,5.95
2017-09-08T08:34:33.104Z,5.57
2017-09-08T08:35:43.629Z,5.70
2017-09-08T08:36:52.890Z,5.50
2017-09-08T08:38:00.891Z,5.40
2017-09-08T08:39:12.182Z,5.20
2017-09-08T08:40:21.976Z,5.80
2017-09-08T08:41:32.987Z,5.50
2017-09-08T08:42:43.498Z,5.43
2017-09-08T08:43:53.909Z,5.35
2017-09-08T08:45:05.061Z,5.87
2017-09-08T08:46:15.297Z,4.62
2017-09-08T08:47:28.043Z,5.30
2017-09-08T08:48:37.103Z,5.35
2017-09-08T08:49:54.078Z,5.55
2017-09-08T08:51:05.263Z,5.03
2017-09-08T08:52:17.229Z,5.00
2017-09-08T08:53:27.036Z,5.22
2017-09-08T08:54:38.505Z,4.93
2017-09-08T08:55:48.061Z,5.45
2017-09-08T08:56:57.930Z,5.45
2017-09-08T08:58:07.873Z,4.95
2017-09-08T08:59:19.078Z,4.80
2017-09-08T09:00:28.230Z,4.35
2017-09-08T09:01:47.253Z,5.53
2017-09-08T09:02:59.039Z,5.15
2017-09-08T09:04:11.135Z,5.05
2017-09-08T09:05:21.011Z,4.82
2017-09-08T09:06:31.011Z,5.40
2017-09-08T09:07:41.962Z,5.45
2017-09-08T09:08:53.961Z,4.93
2017-09-08T09:10:03.941Z,4.40
2017-09-08T09:11:16.118Z,5.32
2017-09-08T09:12:25.957Z,4.57
2017-09-08T09:13:35.876Z,4.78
2017-09-08T09:14:45.826Z,4.50
2017-09-08T09:15:56.932Z,4.35
2017-09-08T09:17:06.865Z,4.60
2017-09-08T09:18:17.859Z,5.25
2017-09-08T09:19:26.854Z,4.75
2017-09-08T09:20:36.862Z,4.18
2017-09-08T09:21:45.774Z,4.40
2017-09-08T09:22:56.215Z,4.57
2017-09-08T09:24:06.880Z,4.20
2017-09-08T09:25:17.816Z,4.40
2017-09-08T09:26:27.913Z,4.70
2017-09-08T09:27:37.935Z,4.45
2017-09-08T09:28:51.054Z,4.97
2017-09-08T09:30:00.844Z,4.68
2017-09-08T09:31:17.874Z,4.87
2017-09-08T09:32:27.840Z,4.22
2017-09-08T09:33:37.768Z,4.35
2017-09-08T09:34:47.906Z,3.92
2017-09-08T09:35:57.832Z,4.35
2017-09-08T09:37:08.725Z,4.70
2017-09-08T09:38:18.841Z,4.07
2017-09-08T09:39:30.047Z,4.45
2017-09-08T09:40:40.767Z,4.30
2017-09-08T09:41:52.937Z,3.70
2017-09-08T09:43:02.900Z,4.32
2017-09-08T09:44:14.079Z,4.15
2017-09-08T09:45:24.814Z,4.30
2017-09-08T09:46:33.828Z,4.30
2017-09-08T09:47:43.875Z,4.25
2017-09-08T09:48:54.890Z,4.00
2017-09-08T09:50:04.767Z,4.20
2017-09-08T09:51:15.798Z,4.35
2017-09-08T09:52:25.713Z,3.55
2017-09-08T09:53:35.872Z,3.22
2017-09-08T09:54:48.075Z,3.92
2017-09-08T09:55:57.769Z,4.03
2017-09-08T09:57:09.888Z,3.40
2017-09-08T09:58:19.816Z,3.80
2017-09-08T09:59:28.731Z,3.42
2017-09-08T10:00:37.875Z,3.65
2017-09-08T10:01:47.829Z,3.70
2017-09-08T10:02:58.805Z,3.10
2017-09-08T10:04:08.764Z,3.67
2017-09-08T10:05:19.866Z,3.45
2017-09-08T10:06:31.733Z,3.30
2017-09-08T10:07:41.526Z,4.03
2017-09-08T10:08:50.834Z,3.40
2017-09-08T10:10:02.748Z,3.78
2017-09-08T10:11:14.881Z,3.70
2017-09-08T10:12:31.827Z,3.65
2017-09-08T10:13:41.880Z,3.92
2017-09-08T10:14:51.849Z,3.70
2017-09-08T10:16:01.740Z,3.90
2017-09-08T10:17:13.104Z,3.90
2017-09-08T10:18:22.830Z,3.40
2017-09-08T10:19:33.737Z,3.78
2017-09-08T10:20:42.699Z,4.03
2017-09-08T10:21:52.689Z,4.07
2017-09-08T10:23:02.843Z,3.65
2017-09-08T10:24:12.953Z,3.62
2017-09-08T10:25:23.659Z,3.70
2017-09-08T10:26:33.718Z,3.58
2017-09-08T10:27:45.583Z,3.80
2017-09-08T10:28:56.665Z,3.55
2017-09-08T10:30:07.725Z,3.75
2017-09-08T10:31:24.151Z,3.45
2017-09-08T10:36:29.669Z,4.00
2017-09-08T10:38:00.989Z,3.58
2017-09-08T10:39:11.671Z,3.90
2017-09-08T10:40:45.644Z,3.75
2017-09-08T10:42:08.914Z,3.50
2017-09-08T10:43:31.959Z,2.97
2017-09-08T10:46:26.760Z,3.45
2017-09-08T10:47:35.879Z,4.47
2017-09-08T10:48:46.574Z,3.83
2017-09-08T10:49:56.725Z,2.92
2017-09-08T10:51:06.890Z,3.00
2017-09-08T10:52:15.579Z,4.03
2017-09-08T10:53:23.831Z,3.35
2017-09-08T10:55:03.644Z,3.35
2017-09-08T10:56:34.559Z,3.80
2017-09-08T10:58:08.460Z,3.50
2017-09-08T11:02:37.003Z,3.42
2017-09-08T11:04:27.142Z,3.55
2017-09-08T11:05:34.966Z,3.80
2017-09-08T11:06:44.561Z,3.95
2017-09-08T11:08:04.430Z,3.47
2017-09-08T11:10:55.616Z,3.70
2017-09-08T11:12:04.742Z,4.50
2017-09-08T11:13:14.922Z,4.18
2017-09-08T11:14:22.917Z,4.93
2017-09-08T11:15:31.146Z,4.80
2017-09-08T11:16:40.253Z,5.30
2017-09-08T11:17:49.635Z,4.35
2017-09-08T11:21:12.755Z,5.15
2017-09-08T11:22:44.625Z,5.03
2017-09-08T11:23:59.795Z,5.53
2017-09-08T11:25:22.870Z,5.82
2017-09-08T11:26:53.534Z,4.50
2017-09-08T11:28:15.940Z,6.00
2017-09-08T11:29:32.441Z,5.12
2017-09-08T11:30:46.711Z,4.85
2017-09-08T11:32:09.448Z,5.40
2017-09-08T11:33:37.858Z,5.62
2017-09-08T11:35:10.766Z,4.68
2017-09-08T11:36:32.058Z,5.32
2017-09-08T11:37:44.727Z,5.65
2017-09-08T11:38:54.573Z,4.70
2017-09-08T11:40:04.621Z,5.05
2017-09-08T11:41:14.482Z,5.87
2017-09-08T11:42:25.647Z,5.95
2017-09-08T11:43:38.756Z,5.07
2017-09-08T11:45:00.865Z,4.78
2017-09-08T11:46:11.548Z,5.95
2017-09-08T11:47:21.597Z,6.60
2017-09-08T11:48:32.551Z,4.97
2017-09-08T11:49:42.108Z,5.62
2017-09-08T11:50:55.544Z,5.95
2017-09-08T11:52:06.721Z,5.15
2017-09-08T11:53:17.839Z,6.37
2017-09-08T11:54:28.645Z,5.00
2017-09-08T11:55:38.631Z,5.78
2017-09-08T11:56:52.883Z,5.05
2017-09-08T11:58:04.462Z,5.57
2017-09-08T11:59:16.513Z,5.60
2017-09-08T12:00:27.768Z,5.40
2017-09-08T12:01:41.707Z,5.68
2017-09-08T12:02:53.654Z,4.93
2017-09-08T12:04:09.773Z,5.07
2017-09-08T12:05:30.439Z,4.80
2017-09-08T12:06:46.770Z,6.00
2017-09-08T12:07:56.493Z,5.32
2017-09-08T12:09:05.474Z,6.10
2017-09-08T12:10:14.488Z,5.03
2017-09-08T12:11:25.468Z,4.80
2017-09-08T12:12:35.367Z,5.50
2017-09-08T12:13:45.405Z,5.00
2017-09-08T12:14:56.464Z,5.43
2017-09-08T12:16:12.662Z,5.05
2017-09-08T12:17:22.748Z,4.43
2017-09-08T12:19:56.470Z,5.00
2017-09-08T12:21:07.590Z,5.35
2017-09-08T12:22:16.484Z,4.32
2017-09-08T12:23:25.486Z,5.57
2017-09-08T12:24:36.527Z,4.53
2017-09-08T12:25:46.497Z,4.62
2017-09-08T12:26:56.329Z,4.37
2017-09-08T12:28:06.458Z,4.05
2017-09-08T12:29:16.476Z,3.85
2017-09-08T12:30:26.347Z,4.22
2017-09-08T12:31:35.461Z,4.60
2017-09-08T12:32:45.538Z,4.05
2017-09-08T12:33:56.503Z,4.50
2017-09-08T12:35:07.418Z,4.35
2017-09-08T12:36:16.382Z,3.95
2017-09-08T12:37:26.366Z,4.30
2017-09-08T12:38:36.416Z,4.32
2017-09-08T12:39:53.692Z,4.78
2017-09-08T12:41:04.464Z,4.03
2017-09-08T12:42:14.063Z,3.70
2017-09-08T12:43:22.279Z,4.50
2017-09-08T12:44:33.531Z,3.60
2017-09-08T12:45:45.647Z,4.45
2017-09-08T12:46:56.364Z,4.25
2017-09-08T12:48:04.340Z,4.15
2017-09-08T12:49:13.342Z,4.10
2017-09-08T12:50:22.364Z,4.20
2017-09-08T12:51:32.607Z,4.18
2017-09-08T12:52:42.472Z,3.95
2017-09-08T12:53:52.982Z,3.53
2017-09-08T12:55:02.398Z,3.75
2017-09-08T12:56:10.342Z,4.22
2017-09-08T12:57:22.455Z,4.57
2017-09-08T12:58:33.321Z,3.50
2017-09-08T12:59:43.322Z,4.03
2017-09-08T13:00:57.530Z,4.03
2017-09-08T13:02:12.561Z,4.30
2017-09-08T13:03:21.446Z,3.97
2017-09-08T13:04:30.308Z,4.05
2017-09-08T13:05:42.252Z,4.65
2017-09-08T13:06:52.351Z,4.40
2017-09-08T13:08:01.456Z,4.80
2017-09-08T13:09:10.687Z,3.78
2017-09-08T13:10:19.565Z,4.35
2017-09-08T13:11:28.275Z,4.35
2017-09-08T13:12:39.502Z,4.20
2017-09-08T13:13:48.289Z,4.03
2017-09-08T13:14:58.497Z,3.75
2017-09-08T13:16:08.332Z,3.78
2017-09-08T13:17:20.517Z,4.03
2017-09-08T13:18:30.330Z,4.18
2017-09-08T13:19:39.374Z,3.60
2017-09-08T13:20:51.614Z,4.45
2017-09-08T13:22:04.552Z,4.62
2017-09-08T13:23:19.378Z,4.82
2017-09-08T13:24:29.314Z,4.30
2017-09-08T13:25:41.649Z,4.22
2017-09-08T13:26:52.450Z,4.78
2017-09-08T13:28:02.439Z,5.00
2017-09-08T13:29:12.554Z,4.32
2017-09-08T13:30:24.604Z,5.53
2017-09-08T13:31:34.323Z,5.22
2017-09-08T13:32:44.334Z,4.25
2017-09-08T13:33:54.360Z,4.47
2017-09-08T13:35:06.498Z,5.00
2017-09-08T13:36:16.433Z,4.97
2017-09-08T13:37:26.259Z,4.82
2017-09-08T13:38:38.470Z,4.97
2017-09-08T13:39:48.317Z,5.43
2017-09-08T13:40:58.251Z,5.00
2017-09-08T13:42:09.286Z,5.53
2017-09-08T13:43:26.449Z,5.00
2017-09-08T13:44:37.222Z,5.03
2017-09-08T13:45:46.374Z,4.82
2017-09-08T13:46:55.232Z,3.83
2017-09-08T13:48:05.364Z,4.45
2017-09-08T13:49:15.348Z,4.43
2017-09-08T13:50:25.201Z,4.15
2017-09-08T13:51:35.183Z,4.50
2017-09-08T13:52:45.449Z,4.70
2017-09-08T13:53:55.404Z,4.90
2017-09-08T13:55:06.234Z,4.82
2017-09-08T13:56:16.291Z,4.80
2017-09-08T13:57:26.720Z,3.67
2017-09-08T13:58:37.518Z,4.55
2017-09-08T13:59:47.538Z,5.18
2017-09-08T14:00:58.352Z,4.72
2017-09-08T14:02:09.252Z,4.35
2017-09-08T14:03:20.125Z,4.50
2017-09-08T14:04:36.238Z,4.93
2017-09-08T14:05:45.250Z,4.22
2017-09-08T14:06:54.010Z,4.40
2017-09-08T14:08:03.373Z,4.25
2017-09-08T14:09:13.259Z,3.97
2017-09-08T14:10:24.033Z,4.20
2017-09-08T14:11:34.238Z,4.20
2017-09-08T14:12:43.239Z,5.07
2017-09-08T14:13:55.416Z,4.28
2017-09-08T14:15:05.172Z,5.12
2017-09-08T14:16:16.239Z,4.30
2017-09-08T14:17:25.154Z,4.00
2017-09-08T14:18:35.298Z,4.70
2017-09-08T14:19:45.224Z,4.93
2017-09-08T14:20:54.346Z,4.62
2017-09-08T14:22:04.111Z,4.50
2017-09-08T14:23:15.289Z,4.60
2017-09-08T14:24:26.529Z,4.00
2017-09-08T14:25:38.276Z,3.70
2017-09-08T14:26:48.345Z,4.00
2017-09-08T14:27:59.312Z,3.72
2017-09-08T14:29:10.143Z,4.60
2017-09-08T14:30:20.226Z,4.62
2017-09-08T14:31:30.171Z,4.10
2017-09-08T14:32:39.327Z,3.65
2017-09-08T14:33:49.300Z,3.78
2017-09-08T14:34:59.168Z,5.22
2017-09-08T14:36:10.160Z,4.30
2017-09-08T14:37:20.091Z,3.65
2017-09-08T14:38:29.126Z,4.00
2017-09-08T14:39:40.213Z,4.03
2017-09-08T14:40:50.118Z,4.03
2017-09-08T14:42:00.152Z,3.50
2017-09-08T14:43:10.329Z,4.57
2017-09-08T14:44:19.255Z,4.20
2017-09-08T14:45:28.008Z,3.70
2017-09-08T14:46:38.296Z,4.40
2017-09-08T14:47:49.158Z,4.20
2017-09-08T14:48:59.450Z,3.62
2017-09-08T14:50:08.305Z,3.72
2017-09-08T14:51:19.219Z,3.90
2017-09-08T14:52:29.080Z,3.75
2017-09-08T14:53:40.175Z,3.83
2017-09-08T14:54:50.150Z,4.43
2017-09-08T14:55:59.542Z,3.62
2017-09-08T14:57:09.059Z,4.25
2017-09-08T14:58:19.150Z,4.55
2017-09-08T14:59:30.065Z,4.12
2017-09-08T15:00:41.037Z,4.28
2017-09-08T15:01:51.114Z,3.83
2017-09-08T15:03:01.226Z,3.60
2017-09-08T15:04:11.027Z,4.10
2017-09-08T15:05:21.100Z,4.53
2017-09-08T15:06:31.451Z,4.07
2017-09-08T15:07:44.451Z,3.85
2017-09-08T15:09:01.390Z,3.30
2017-09-08T15:10:11.221Z,3.92
2017-09-08T15:11:21.071Z,3.90
2017-09-08T15:12:30.100Z,4.30
2017-09-08T15:13:41.063Z,3.70
2017-09-08T15:14:51.159Z,3.85
2017-09-08T15:16:01.126Z,4.32
2017-09-08T15:17:11.107Z,4.68
2017-09-08T15:18:22.038Z,4.50
2017-09-08T15:19:32.105Z,4.18
2017-09-08T15:20:42.074Z,4.57
2017-09-08T15:21:51.425Z,4.25
2017-09-08T15:23:02.119Z,4.05
2017-09-08T15:24:13.219Z,4.75
2017-09-08T15:25:24.081Z,4.70
2017-09-08T15:26:33.439Z,4.20
2017-09-08T15:27:44.141Z,3.70
2017-09-08T15:28:53.059Z,4.28
2017-09-08T15:30:02.182Z,4.97
2017-09-08T15:31:11.373Z,4.00
2017-09-08T15:32:21.110Z,4.60
2017-09-08T15:33:31.053Z,4.25
2017-09-08T15:34:42.157Z,3.97
2017-09-08T15:35:54.175Z,3.85
2017-09-08T15:37:05.989Z,3.70
2017-09-08T15:38:18.186Z,3.70
2017-09-08T15:39:29.131Z,3.67
2017-09-08T15:40:38.130Z,3.92
2017-09-08T15:41:49.014Z,3.67
2017-09-08T15:43:02.275Z,4.00
2017-09-08T15:44:13.037Z,3.87
2017-09-08T15:45:22.892Z,3.72
2017-09-08T15:46:32.057Z,3.80
2017-09-08T15:47:43.091Z,3.62
2017-09-08T15:48:55.113Z,4.18
2017-09-08T15:50:06.087Z,3.92
2017-09-08T15:51:16.110Z,4.65
2017-09-08T15:52:27.071Z,3.50
2017-09-08T15:53:36.772Z,4.07
2017-09-08T15:54:45.958Z,3.60
2017-09-08T15:55:56.617Z,4.05
2017-09-08T15:57:05.936Z,3.80
2017-09-08T15:58:18.312Z,3.97
2017-09-08T15:59:28.131Z,4.30
2017-09-08T16:00:41.341Z,3.72
2017-09-08T16:01:57.192Z,4.10
2017-09-08T16:03:07.111Z,3.90
2017-09-08T16:04:22.245Z,4.28
2017-09-08T16:05:33.235Z,3.90
2017-09-08T16:06:43.099Z,3.70
2017-09-08T16:07:55.201Z,4.00
2017-09-08T16:09:07.212Z,3.80
2017-09-08T16:10:20.399Z,3.80
2017-09-08T16:11:34.059Z,3.60
2017-09-08T16:12:45.232Z,3.95
2017-09-08T16:13:56.108Z,4.20
2017-09-08T16:15:06.019Z,3.80
2017-09-08T16:16:16.078Z,3.97
2017-09-08T16:17:28.016Z,3.55
2017-09-08T16:18:39.120Z,3.70
2017-09-08T16:19:49.956Z,4.07
2017-09-08T16:21:02.152Z,4.20
2017-09-08T16:22:15.063Z,3.95
2017-09-08T16:23:26.727Z,3.50
2017-09-08T16:24:42.099Z,4.60
2017-09-08T16:25:54.958Z,3.55
2017-09-08T16:27:09.189Z,4.45
2017-09-08T16:28:24.161Z,3.60
2017-09-08T16:29:39.197Z,4.05
2017-09-08T16:30:53.057Z,4.30
2017-09-08T16:32:10.819Z,3.72
2017-09-08T16:33:25.265Z,4.68